Time;durP1;ratioP1;P1;durP2;ratioP2;P2;SDS_P1;SDS_P2;PMS_P1;PMS_P2;Temp;Humidity;BMP_temperature;BMP_pressure;BME280_temperature;BME280_humidity;BME280_pressure;Samples;Min_cycle;Max_cycle;Signal;HPM_P1;HPM_P2
2024/03/16 00:01:10;;;;;;;5.17;1.83;;;;;;;13.02;86.33;98567.09;5117484;27;41803;-75
2024/03/16 00:03:37;;;;;;;2.40;1.60;;;;;;;12.99;86.73;98564.66;5101127;27;38914;-75
2024/03/16 00:06:05;;;;;;;2.00;1.70;;;;;;;12.97;87.29;98556.00;5117877;27;42771;-76
2024/03/16 00:08:33;;;;;;;2.50;1.80;;;;;;;12.99;85.99;98556.69;5135202;27;42878;-75
2024/03/16 00:11:02;;;;;;;5.23;2.00;;;;;;;12.99;86.41;98564.66;5100923;27;42180;-75
2024/03/16 00:13:29;;;;;;;2.30;1.57;;;;;;;12.97;86.72;98569.28;5117892;27;41295;-75
2024/03/16 00:15:57;;;;;;;3.23;1.97;;;;;;;12.86;86.96;98545.31;5134774;27;41749;-75
2024/03/16 00:18:25;;;;;;;2.33;1.67;;;;;;;12.94;87.05;98564.19;5117894;27;41974;-75
2024/03/16 00:20:52;;;;;;;2.67;2.30;;;;;;;12.90;87.91;98565.38;5100537;27;41363;-75
2024/03/16 00:23:20;;;;;;;2.37;1.73;;;;;;;12.89;87.38;98566.34;5101064;27;39750;-76
2024/03/16 00:25:48;;;;;;;2.53;1.67;;;;;;;12.89;86.32;98577.81;5138337;27;42615;-76
2024/03/16 00:28:16;;;;;;;1.90;1.53;;;;;;;12.90;86.17;98576.00;5138807;27;42673;-75
2024/03/16 00:30:43;;;;;;;2.70;1.70;;;;;;;12.87;86.93;98578.91;5104299;27;43680;-76
2024/03/16 00:33:11;;;;;;;2.43;1.60;;;;;;;12.87;87.22;98578.91;5121569;27;40912;-75
2024/03/16 00:35:40;;;;;;;3.80;2.00;;;;;;;12.89;86.64;98584.94;5104599;27;40837;-76
2024/03/16 00:38:09;;;;;;;4.17;1.73;;;;;;;12.86;87.34;98580.72;5121617;27;42776;-76
2024/03/16 00:40:37;;;;;;;3.60;1.87;;;;;;;12.85;86.78;98581.69;5121507;27;42191;-76
2024/03/16 00:43:05;;;;;;;2.27;1.77;;;;;;;12.83;87.35;98583.63;5104326;27;38922;-76
2024/03/16 00:45:33;;;;;;;2.20;1.90;;;;;;;12.80;87.20;98575.88;5103968;27;41985;-75
2024/03/16 00:48:04;;;;;;;2.10;1.73;;;;;;;12.76;87.46;98570.91;5103973;27;41995;-75
2024/03/16 00:50:32;;;;;;;1.77;1.23;;;;;;;12.68;87.95;98574.16;5120257;27;42660;-76
2024/03/16 00:53:00;;;;;;;1.60;1.40;;;;;;;12.67;87.87;98576.91;5121614;27;40109;-75
2024/03/16 00:55:27;;;;;;;3.30;1.57;;;;;;;12.63;87.35;98580.75;5103510;27;43259;-76
2024/03/16 00:57:56;;;;;;;1.63;1.40;;;;;;;12.57;86.98;98580.28;5104115;27;41585;-76
2024/03/16 01:00:23;;;;;;;1.50;1.40;;;;;;;12.51;87.20;98578.06;5104089;27;41466;-75
2024/03/16 01:02:51;;;;;;;1.50;1.40;;;;;;;12.49;87.82;98579.97;5120999;27;39840;-75
2024/03/16 01:05:19;;;;;;;2.63;1.60;;;;;;;12.49;88.40;98585.28;5137974;27;41697;-75
2024/03/16 01:07:47;;;;;;;2.40;1.63;;;;;;;12.52;88.10;98593.03;5103972;27;43953;-75
2024/03/16 01:10:15;;;;;;;1.43;1.33;;;;;;;12.57;88.98;98595.38;5137845;27;43189;-75
2024/03/16 01:12:43;;;;;;;2.43;1.87;;;;;;;12.67;88.65;98587.53;5121155;27;40049;-76
2024/03/16 01:15:10;;;;;;;1.73;1.60;;;;;;;12.72;88.95;98585.41;5137672;27;41697;-75
2024/03/16 01:17:38;;;;;;;1.30;1.20;;;;;;;12.80;88.55;98585.66;5137943;27;42714;-75
2024/03/16 01:20:09;;;;;;;1.47;1.30;;;;;;;12.85;88.15;98596.78;5120448;27;42303;-76
2024/03/16 01:22:37;;;;;;;1.80;1.50;;;;;;;12.79;87.95;98579.50;5118484;27;41861;-75
2024/03/16 01:25:05;;;;;;;1.47;1.37;;;;;;;12.78;87.94;98584.91;5103572;27;40729;-75
2024/03/16 01:27:33;;;;;;;1.33;1.20;;;;;;;12.72;87.94;98585.41;5120669;27;42725;-76
2024/03/16 01:30:01;;;;;;;1.37;1.27;;;;;;;12.72;87.50;98590.72;5103494;27;42255;-76
2024/03/16 01:32:28;;;;;;;1.43;1.33;;;;;;;12.67;87.57;98591.03;5103436;27;38743;-77
2024/03/16 01:34:56;;;;;;;1.93;1.63;;;;;;;12.61;87.52;98593.34;5136794;27;42677;-76
2024/03/16 01:37:23;;;;;;;1.13;1.10;;;;;;;12.55;87.75;98589.31;5103012;27;42045;-76
2024/03/16 01:39:51;;;;;;;1.70;1.33;;;;;;;12.53;87.67;98596.53;5103261;27;41248;-76
2024/03/16 01:42:19;;;;;;;1.43;1.33;;;;;;;12.48;86.94;98588.94;5120558;27;40875;-76
2024/03/16 01:45:04;;;;;;;2.43;1.10;;;;;;;12.38;88.29;98590.56;5119845;27;41820;-76
2024/03/16 01:47:32;;;;;;;1.47;1.10;;;;;;;12.34;87.64;98583.81;5136016;27;43773;-77
2024/03/16 01:49:59;;;;;;;2.70;1.20;;;;;;;12.32;87.71;98587.53;5102687;27;40887;-76
2024/03/16 01:52:27;;;;;;;1.33;1.17;;;;;;;12.26;87.80;98585.31;5120153;27;40167;-74
2024/03/16 08:12:29;;;;;;;1.80;0.90;;;;;;;12.05;100.00;98834.56;5165842;27;20531;-74
2024/03/16 08:14:57;;;;;;;0.90;0.80;;;;;;;12.69;100.00;98840.69;5131624;27;40568;-75
2024/03/16 08:17:25;;;;;;;0.90;0.70;;;;;;;13.32;94.43;98847.66;5131846;27;42750;-75
2024/03/16 08:19:53;;;;;;;2.00;0.87;;;;;;;13.85;88.94;98863.09;5131311;27;43827;-74
2024/03/16 08:22:21;;;;;;;1.70;0.80;;;;;;;14.26;86.02;98853.75;5114067;27;42450;-74
2024/03/16 08:24:49;;;;;;;0.60;0.60;;;;;;;14.69;82.90;98873.47;5114315;27;38745;-75
2024/03/16 08:27:17;;;;;;;0.83;0.73;;;;;;;15.08;80.27;98873.91;5114239;27;41803;-74
2024/03/16 08:29:45;;;;;;;1.23;0.60;;;;;;;15.28;76.57;98886.47;5114263;27;43745;-75
2024/03/16 08:32:14;;;;;;;1.23;0.70;;;;;;;15.27;75.81;98879.44;5096555;27;40778;-74
2024/03/16 08:34:42;;;;;;;2.73;0.90;;;;;;;15.21;75.49;98879.94;5097846;27;40020;-74
2024/03/16 08:37:09;;;;;;;0.80;0.80;;;;;;;15.23;75.95;98883.31;5131062;27;41753;-76
2024/03/16 08:39:38;;;;;;;0.70;0.70;;;;;;;15.24;75.31;98887.69;5097062;27;42995;-76
2024/03/16 08:42:06;;;;;;;1.47;0.67;;;;;;;15.19;75.86;98884.56;5113719;27;40937;-75
2024/03/16 08:44:34;;;;;;;1.60;0.80;;;;;;;15.12;76.59;98880.69;5097152;27;39114;-76
2024/03/16 08:47:02;;;;;;;1.10;0.80;;;;;;;15.19;76.61;98865.03;5114286;27;41855;-75
2024/03/16 08:49:30;;;;;;;1.93;0.70;;;;;;;15.55;75.24;98882.56;5112977;27;43327;-76
2024/03/16 08:51:59;;;;;;;1.20;0.87;;;;;;;16.06;74.45;98886.22;5114020;27;42608;-76
2024/03/16 08:54:26;;;;;;;1.40;0.87;;;;;;;16.58;73.28;98888.91;5096992;27;38833;-76
2024/03/16 08:56:54;;;;;;;1.00;0.80;;;;;;;16.65;70.46;98888.31;5113846;27;42518;-77
2024/03/16 08:59:22;;;;;;;0.87;0.57;;;;;;;16.69;70.26;98897.72;5130793;27;43020;-76
2024/03/16 09:01:50;;;;;;;2.40;0.73;;;;;;;16.80;69.00;98896.81;5130572;27;42067;-76
2024/03/16 09:04:17;;;;;;;0.97;0.60;;;;;;;16.83;68.30;98893.84;5096867;27;38427;-76
2024/03/16 09:06:45;;;;;;;3.20;0.80;;;;;;;17.04;68.22;98892.00;5113232;27;40750;-76
2024/03/16 09:09:15;;;;;;;1.80;0.60;;;;;;;17.25;67.86;98910.63;5113328;27;43175;-77
2024/03/16 09:11:43;;;;;;;0.60;0.60;;;;;;;17.29;66.47;98911.22;5113961;27;43133;-76
2024/03/16 09:14:11;;;;;;;0.73;0.60;;;;;;;17.16;66.40;98906.97;5096441;27;39275;-76
2024/03/16 09:16:40;;;;;;;0.73;0.63;;;;;;;17.14;66.22;98924.13;5130479;27;42936;-76
2024/03/16 09:19:08;;;;;;;0.60;0.60;;;;;;;17.01;65.97;98912.81;5113803;27;43271;-77
2024/03/16 09:21:36;;;;;;;0.57;0.53;;;;;;;16.80;64.48;98928.91;5113066;27;42188;-76
2024/03/16 09:24:04;;;;;;;1.03;0.60;;;;;;;16.73;65.73;98936.63;5099236;27;38847;-76
2024/03/16 09:26:32;;;;;;;1.20;0.77;;;;;;;16.65;65.57;98925.75;5082789;27;42094;-76
2024/03/16 09:28:59;;;;;;;0.73;0.73;;;;;;;16.41;65.64;98888.56;5116640;27;43112;-76
2024/03/16 09:31:27;;;;;;;0.70;0.60;;;;;;;16.62;64.94;98923.31;5082401;27;42361;-77
2024/03/16 09:33:54;;;;;;;0.53;0.53;;;;;;;16.61;64.97;98923.41;5116935;27;40004;-76
2024/03/16 09:36:22;;;;;;;0.87;0.60;;;;;;;16.82;64.90;98938.47;5099596;27;41880;-76
2024/03/16 09:38:50;;;;;;;1.73;0.60;;;;;;;16.96;64.35;98947.13;5099365;27;44645;-77
2024/03/16 09:41:17;;;;;;;0.50;0.50;;;;;;;17.02;63.27;98949.28;5099271;27;42581;-76
2024/03/16 09:43:45;;;;;;;0.90;0.60;;;;;;;17.18;63.37;98946.97;5082556;27;38895;-76
2024/03/16 09:46:12;;;;;;;1.77;1.00;;;;;;;17.38;62.75;98937.16;5082424;27;40855;-76
2024/03/16 09:48:40;;;;;;;1.40;0.73;;;;;;;17.43;61.93;98941.09;5099693;27;43875;-76
2024/03/16 09:51:09;;;;;;;1.87;0.67;;;;;;;17.47;62.04;98947.88;5099058;27;42297;-77
2024/03/16 09:53:38;;;;;;;0.60;0.60;;;;;;;17.56;62.11;98940.84;5099721;27;38788;-77
2024/03/16 09:56:07;;;;;;;1.27;0.70;;;;;;;17.66;60.44;98957.00;5082106;27;42940;-76
2024/03/16 09:58:36;;;;;;;1.20;0.80;;;;;;;17.70;60.54;98942.31;5099230;27;43461;-76
2024/03/16 10:01:04;;;;;;;0.70;0.70;;;;;;;17.75;59.13;98964.19;5081334;27;40913;-76
2024/03/16 10:03:32;;;;;;;0.90;0.70;;;;;;;17.64;59.71;98964.31;5099177;27;40938;-77
2024/03/16 10:06:04;;;;;;;1.07;0.70;;;;;;;17.46;59.18;98972.97;5098509;27;40454;-76
2024/03/16 10:08:32;;;;;;;0.90;0.80;;;;;;;17.26;59.95;98965.03;5113409;27;43763;-76
2024/03/16 10:11:10;;;;;;;1.20;0.87;;;;;;;17.37;60.13;98962.25;5081215;27;40900;-76
2024/03/16 10:13:38;;;;;;;2.10;0.63;;;;;;;17.36;60.16;98969.41;5099539;27;39160;-76
2024/03/16 10:16:07;;;;;;;0.40;0.40;;;;;;;17.24;59.84;98967.81;5098626;27;40813;-76
2024/03/16 10:18:35;;;;;;;0.90;0.67;;;;;;;17.18;60.50;98955.00;5115765;27;43841;-76
2024/03/16 10:21:04;;;;;;;0.93;0.80;;;;;;;17.35;59.91;98959.69;5098677;27;42436;-77
2024/03/16 10:23:32;;;;;;;2.60;0.50;;;;;;;17.72;59.49;98972.50;5099348;27;39832;-77
2024/03/16 10:26:02;;;;;;;0.50;0.50;;;;;;;17.79;58.41;98968.31;5098722;27;41323;-77
2024/03/16 10:28:29;;;;;;;1.07;0.70;;;;;;;17.82;57.74;98978.72;5082321;27;44772;-76
2024/03/16 10:30:59;;;;;;;0.80;0.50;;;;;;;17.90;57.08;98976.22;5115134;27;42099;-76
2024/03/16 10:33:27;;;;;;;1.40;0.80;;;;;;;17.99;57.50;98985.25;5081605;27;39066;-76
2024/03/16 10:35:56;;;;;;;2.00;0.80;;;;;;;17.86;57.25;98981.00;5081234;27;40716;-76
2024/03/16 10:38:23;;;;;;;1.53;1.00;;;;;;;17.77;56.71;98979.16;5081834;27;43579;-77
2024/03/16 10:40:51;;;;;;;1.50;0.80;;;;;;;17.77;57.43;98986.34;5097841;27;42627;-76
2024/03/16 10:43:19;;;;;;;1.07;0.90;;;;;;;17.76;57.75;98981.97;5098548;27;39904;-76
2024/03/16 10:45:46;;;;;;;0.70;0.70;;;;;;;18.14;57.45;98982.03;5098236;27;41937;-76
2024/03/16 10:48:14;;;;;;;0.70;0.63;;;;;;;18.25;56.64;98984.56;5115340;27;42738;-76
2024/03/16 10:50:46;;;;;;;0.70;0.70;;;;;;;18.29;55.18;99009.25;5098108;27;42466;-76
2024/03/16 10:53:14;;;;;;;2.07;0.63;;;;;;;18.29;55.66;99004.75;5099418;27;38829;-76
2024/03/16 10:55:41;;;;;;;1.00;0.70;;;;;;;18.59;54.87;99016.31;5114603;27;42673;-76
2024/03/16 10:58:18;;;;;;;1.60;0.50;;;;;;;18.61;56.54;99011.66;5098022;27;42045;-76
2024/03/16 11:00:46;;;;;;;0.50;0.50;;;;;;;18.42;59.40;98977.63;5098351;27;41937;-77
2024/03/16 11:03:22;;;;;;;1.07;0.50;;;;;;;18.76;59.73;98986.09;5098247;27;41383;-77
2024/03/16 11:05:54;;;;;;;1.23;0.83;;;;;;;19.19;58.39;98987.38;5083549;27;40488;-76
2024/03/16 11:08:23;;;;;;;0.70;0.70;;;;;;;19.80;55.97;98993.03;5082451;27;43022;-77
2024/03/16 11:10:52;;;;;;;1.13;0.60;;;;;;;20.56;53.17;99014.16;5080590;27;41183;-76
2024/03/16 11:13:23;;;;;;;0.70;0.70;;;;;;;22.73;48.86;99034.22;5115340;27;40876;-76
2024/03/16 11:15:51;;;;;;;1.00;0.80;;;;;;;25.82;43.46;99071.28;5081445;27;41880;-77
2024/03/16 11:18:52;;;;;;;2.25;0.60;;;;;;;28.72;37.41;99098.19;5097954;27;42523;-77
2024/03/16 11:21:22;;;;;;;0.70;0.50;;;;;;;28.20;35.97;99102.41;5097808;27;41344;-77
2024/03/16 11:23:49;;;;;;;0.93;0.50;;;;;;;29.63;33.80;99115.72;5081103;27;39282;-77
2024/03/16 11:26:38;;;;;;;1.10;0.70;;;;;;;28.22;33.82;99111.22;5097269;27;42971;-77
2024/03/16 11:29:09;;;;;;;0.47;0.47;;;;;;;27.26;35.56;99087.53;5111682;27;43638;-76
2024/03/16 11:31:40;;;;;;;0.75;0.68;;;;;;;27.91;35.53;99099.94;5098387;27;43153;-76
2024/03/16 11:34:11;;;;;;;0.75;0.65;;;;;;;27.73;35.58;99092.28;5098060;27;40357;-77
2024/03/16 11:36:42;;;;;;;0.57;0.57;;;;;;;28.30;34.53;99098.47;5097506;27;42713;-76
2024/03/16 11:39:11;;;;;;;0.80;0.52;;;;;;;29.15;32.46;99106.03;5097211;27;41949;-77
2024/03/16 11:41:43;;;;;;;0.88;0.80;;;;;;;31.61;30.54;99113.91;5097893;27;44736;-77
2024/03/16 11:44:13;;;;;;;0.40;0.40;;;;;;;33.99;27.97;99119.72;5079776;27;38877;-77
2024/03/16 11:46:45;;;;;;;0.55;0.50;;;;;;;33.71;27.95;99126.75;5096836;27;40720;-77
2024/03/16 11:49:14;;;;;;;0.90;0.50;;;;;;;32.54;28.68;99116.50;5098001;27;42017;-77
2024/03/16 11:51:47;;;;;;;0.82;0.60;;;;;;;31.45;30.12;99093.41;5097492;27;42817;-77
2024/03/16 11:54:14;;;;;;;0.90;0.70;;;;;;;29.92;30.78;99086.25;5098760;27;40146;-77
2024/03/16 11:56:42;;;;;;;0.60;0.60;;;;;;;28.71;31.64;99093.78;5097133;27;42035;-78
2024/03/16 11:59:11;;;;;;;1.03;0.73;;;;;;;27.30;33.19;99102.44;5097225;27;41794;-78
2024/03/16 12:01:39;;;;;;;0.50;0.50;;;;;;;25.91;34.73;99081.00;5096852;27;42385;-77
2024/03/16 12:04:06;;;;;;;1.80;0.67;;;;;;;25.08;36.46;99072.19;5097009;27;40415;-79
2024/03/16 12:06:34;;;;;;;1.70;0.50;;;;;;;24.53;37.39;99068.69;5113892;27;42566;-77
2024/03/16 12:09:01;;;;;;;1.73;0.53;;;;;;;26.09;36.44;99070.56;5096888;27;41776;-77
2024/03/16 12:11:29;;;;;;;0.50;0.50;;;;;;;28.54;32.86;99087.88;5113544;27;42312;-76
2024/03/16 12:14:08;;;;;;;0.43;0.43;;;;;;;29.06;32.28;99090.91;5096881;27;40049;-77
2024/03/16 12:16:37;;;;;;;0.63;0.50;;;;;;;28.10;32.43;99085.56;5096029;27;42070;-76
2024/03/16 12:19:04;;;;;;;0.60;0.50;;;;;;;28.95;31.97;99090.50;5096693;27;41504;-76
2024/03/16 12:21:31;;;;;;;0.87;0.60;;;;;;;28.94;31.38;99091.53;5113545;27;43775;-76
2024/03/16 12:23:58;;;;;;;0.40;0.40;;;;;;;27.59;32.34;99095.13;5114128;27;40374;-76
2024/03/16 12:26:27;;;;;;;0.40;0.40;;;;;;;26.48;33.40;99069.38;5096550;27;42476;-77
2024/03/16 12:28:53;;;;;;;0.93;0.43;;;;;;;25.85;35.15;99070.03;5080208;27;43145;-76
2024/03/16 12:31:21;;;;;;;1.90;0.60;;;;;;;25.97;35.17;99063.94;5113548;27;43173;-76
2024/03/16 12:33:47;;;;;;;0.40;0.40;;;;;;;25.93;34.63;99064.53;5080042;27;40566;-75
2024/03/16 12:36:15;;;;;;;0.40;0.40;;;;;;;25.15;35.43;99063.13;5113607;27;42533;-76
2024/03/16 12:38:41;;;;;;;0.63;0.50;;;;;;;23.78;38.14;99073.78;5079983;27;42993;-76
2024/03/16 12:41:09;;;;;;;1.07;0.40;;;;;;;22.59;42.51;99067.28;5113434;27;43467;-76
2024/03/16 12:43:36;;;;;;;0.30;0.30;;;;;;;21.35;45.78;99062.59;5096923;27;40630;-76
2024/03/16 12:46:04;;;;;;;0.97;0.40;;;;;;;20.41;47.76;99052.38;5094939;27;41688;-75
2024/03/16 12:48:31;;;;;;;1.13;0.50;;;;;;;19.50;50.14;99029.13;5079959;27;42903;-76
2024/03/16 12:50:58;;;;;;;0.47;0.37;;;;;;;18.90;51.86;99047.38;5106614;27;43090;-74
2024/03/16 12:53:25;;;;;;;0.60;0.30;;;;;;;18.34;54.14;99033.81;5117407;27;38977;-74
2024/03/16 12:55:53;;;;;;;0.30;0.30;;;;;;;18.08;55.82;99038.84;5103709;27;40588;-75
2024/03/16 12:58:20;;;;;;;0.50;0.50;;;;;;;17.85;57.53;99042.75;5115616;27;43742;-74
2024/03/16 13:00:47;;;;;;;0.67;0.50;;;;;;;17.55;57.97;99041.81;5087806;27;41539;-74
2024/03/16 13:03:14;;;;;;;2.20;0.60;;;;;;;17.43;59.03;99050.88;5120832;27;41065;-74
2024/03/16 13:05:42;;;;;;;1.27;0.80;;;;;;;17.45;59.59;99046.25;5120092;27;42717;-74
2024/03/16 13:08:10;;;;;;;0.90;0.67;;;;;;;17.56;60.24;99038.13;5120624;27;42092;-74
2024/03/16 13:10:38;;;;;;;0.53;0.53;;;;;;;17.74;60.10;99056.25;5136816;27;42322;-74
2024/03/16 13:13:05;;;;;;;0.80;0.70;;;;;;;17.80;60.24;99064.59;5121069;27;39764;-74
2024/03/16 13:15:33;;;;;;;0.90;0.80;;;;;;;17.88;59.55;99071.97;5137831;27;41796;-74
2024/03/16 13:17:59;;;;;;;1.20;1.10;;;;;;;18.06;59.69;99067.63;5103445;27;41703;-76
2024/03/16 13:20:27;;;;;;;1.10;0.80;;;;;;;18.16;58.71;99068.50;5120505;27;42209;-83
2024/03/16 13:22:58;;;;;;;0.77;0.73;;;;;;;17.86;58.14;99031.06;5138566;27;40068;-84
2024/03/16 13:25:26;;;;;;;0.70;0.70;;;;;;;18.23;58.01;99085.72;5103990;27;41853;-78
2024/03/16 13:27:52;;;;;;;0.57;0.57;;;;;;;18.36;59.03;99073.88;5103664;27;41283;-75
2024/03/16 13:30:21;;;;;;;0.90;0.90;;;;;;;18.39;58.19;99085.19;5089573;27;40842;-77
2024/03/16 13:32:47;;;;;;;0.90;0.90;;;;;;;18.37;57.42;99081.78;5098470;27;40786;-75
2024/03/16 13:35:16;;;;;;;0.90;0.70;;;;;;;18.40;57.13;99091.41;5119997;27;40923;-75
2024/03/16 13:37:43;;;;;;;0.90;0.90;;;;;;;18.30;57.14;99097.56;5103253;27;41776;-77
2024/03/16 13:40:11;;;;;;;1.03;0.97;;;;;;;18.08;57.07;99108.53;5102342;27;42697;-74
2024/03/16 13:42:39;;;;;;;1.10;1.00;;;;;;;17.70;57.07;99103.03;5120344;27;40699;-75
2024/03/16 13:45:11;;;;;;;1.10;1.00;;;;;;;17.20;58.01;99081.47;5119934;27;42707;-74
2024/03/16 13:47:39;;;;;;;1.33;1.10;;;;;;;17.00;58.62;99114.47;5103529;27;43127;-75
2024/03/16 13:50:07;;;;;;;1.00;0.90;;;;;;;16.58;59.52;99103.66;5119747;27;41274;-75
2024/03/16 13:52:35;;;;;;;1.00;1.00;;;;;;;16.37;59.58;99110.81;5136995;27;39911;-79
2024/03/16 13:55:02;;;;;;;1.03;1.03;;;;;;;16.23;60.73;99108.41;5102742;27;40180;-76
2024/03/16 13:57:29;;;;;;;1.03;1.00;;;;;;;16.11;60.86;99118.25;5120049;27;42839;-77
2024/03/16 13:59:56;;;;;;;0.97;0.97;;;;;;;16.02;61.02;99114.53;5102366;27;41336;-77
2024/03/16 14:02:24;;;;;;;1.20;1.10;;;;;;;16.05;61.30;99122.31;5103068;27;39941;-75
2024/03/16 14:04:51;;;;;;;1.47;1.00;;;;;;;16.14;60.50;99126.03;5119748;27;40546;-76
2024/03/16 14:07:19;;;;;;;1.40;1.30;;;;;;;16.19;60.86;99125.69;5136471;27;44348;-74
2024/03/16 14:09:46;;;;;;;1.20;1.10;;;;;;;16.34;59.46;99132.44;5119681;27;42286;-76
2024/03/16 14:12:14;;;;;;;1.10;1.00;;;;;;;16.66;59.25;99132.50;5102332;27;38898;-75
2024/03/16 14:14:40;;;;;;;1.83;1.10;;;;;;;17.04;59.01;99134.63;5102490;27;40927;-77
2024/03/16 14:17:09;;;;;;;0.90;0.90;;;;;;;17.31;57.33;99136.81;5101828;27;43379;-76
2024/03/16 14:19:36;;;;;;;1.40;1.27;;;;;;;17.35;55.79;99136.38;5119678;27;42211;-78
2024/03/16 14:22:04;;;;;;;1.00;1.00;;;;;;;17.73;54.81;99156.34;5119576;27;41420;-76
2024/03/16 14:24:31;;;;;;;1.40;0.87;;;;;;;19.19;51.70;99154.69;5136251;27;41821;-75
2024/03/16 14:26:59;;;;;;;1.20;0.90;;;;;;;19.25;50.55;99153.28;5118933;27;41777;-77
2024/03/16 14:29:26;;;;;;;1.87;1.00;;;;;;;19.13;49.45;99170.53;5105666;27;43120;-75
2024/03/16 14:31:53;;;;;;;1.93;1.10;;;;;;;18.84;48.33;99181.25;5098944;27;40143;-77
2024/03/16 14:34:20;;;;;;;2.10;0.83;;;;;;;18.48;49.14;99186.25;5112772;27;41913;-76
2024/03/16 14:36:48;;;;;;;1.03;0.90;;;;;;;18.31;49.60;99185.06;5078261;28;43482;-76
2024/03/16 14:39:15;;;;;;;0.93;0.87;;;;;;;18.16;48.94;99193.66;5080549;27;42875;-79
2024/03/16 14:41:42;;;;;;;1.53;1.10;;;;;;;17.91;49.67;99190.44;5118951;27;38958;-77
2024/03/16 14:44:09;;;;;;;2.53;1.10;;;;;;;17.65;49.17;99191.00;5118297;27;42205;-78
2024/03/16 14:46:37;;;;;;;0.90;0.90;;;;;;;17.46;50.30;99180.97;5118566;27;43041;-78
2024/03/16 14:49:04;;;;;;;2.03;0.90;;;;;;;17.44;50.12;99186.47;5101593;27;41234;-79
2024/03/16 14:51:31;;;;;;;1.67;0.70;;;;;;;17.53;50.91;99169.63;5135592;27;40144;-77
2024/03/16 14:53:58;;;;;;;0.83;0.83;;;;;;;17.57;49.22;99200.50;5135536;27;41597;-78
2024/03/16 14:56:25;;;;;;;1.63;1.00;;;;;;;17.97;48.88;99205.13;5100975;27;41775;-77
2024/03/16 14:58:53;;;;;;;1.23;1.13;;;;;;;18.34;46.92;99194.69;5135355;27;42379;-80
2024/03/16 15:01:20;;;;;;;0.70;0.70;;;;;;;18.48;46.95;99185.41;5119088;27;39802;-80
2024/03/16 15:03:48;;;;;;;1.37;1.10;;;;;;;18.41;46.07;99211.94;5119837;27;42768;-84
2024/03/16 15:06:15;;;;;;;1.30;1.00;;;;;;;18.16;46.36;99218.63;5119230;27;42971;-80
2024/03/16 15:08:42;;;;;;;1.07;0.83;;;;;;;18.04;46.84;99219.69;5119837;27;42194;-76
2024/03/16 15:11:13;;;;;;;0.90;0.90;;;;;;;18.01;46.53;99219.97;5118433;27;42517;-79
2024/03/16 15:13:40;;;;;;;1.10;1.00;;;;;;;17.88;45.41;99220.19;5117374;27;42456;-80
2024/03/16 15:16:07;;;;;;;2.97;1.00;;;;;;;17.93;45.01;99222.44;5118972;27;43595;-78
2024/03/16 15:18:34;;;;;;;0.87;0.80;;;;;;;17.96;45.29;99227.53;5136403;27;42964;-78
2024/03/16 15:21:02;;;;;;;0.80;0.70;;;;;;;17.94;46.58;99229.50;5135843;27;39931;-78
2024/03/16 15:23:29;;;;;;;0.97;0.97;;;;;;;17.92;46.49;99236.84;5136337;27;41867;-80
2024/03/16 15:26:04;;;;;;;0.60;0.60;;;;;;;17.88;46.12;99246.13;5136107;27;42871;-77
2024/03/16 15:28:33;;;;;;;0.70;0.70;;;;;;;17.72;46.11;99245.75;5134497;27;42132;-81
2024/03/16 15:31:01;;;;;;;1.23;1.00;;;;;;;17.41;45.54;99253.69;5119563;27;38546;-82
2024/03/16 15:33:27;;;;;;;1.33;1.10;;;;;;;17.18;44.98;99265.47;5119002;27;42074;-84
2024/03/16 15:35:55;;;;;;;1.90;1.10;;;;;;;17.03;45.16;99266.72;5118877;27;42986;-84
2024/03/16 15:38:22;;;;;;;0.80;0.80;;;;;;;17.02;45.76;99262.34;5101870;27;41308;-79
2024/03/16 15:40:49;;;;;;;1.33;1.23;;;;;;;16.98;46.25;99264.44;5118616;27;39528;-78
2024/03/16 15:43:17;;;;;;;1.07;1.03;;;;;;;16.93;46.20;99268.47;5136194;27;42801;-85
2024/03/16 15:45:44;;;;;;;1.03;1.00;;;;;;;16.77;46.87;99267.03;5118619;27;44973;-79
2024/03/16 15:48:12;;;;;;;1.83;1.10;;;;;;;16.74;46.77;99282.47;5119108;27;41057;-80
2024/03/16 15:50:38;;;;;;;1.80;1.20;;;;;;;16.49;46.59;99275.53;5136028;27;39941;-86
2024/03/16 15:53:07;;;;;;;1.27;1.17;;;;;;;16.35;46.72;99287.34;5118937;27;42561;-78
2024/03/16 15:55:34;;;;;;;1.40;1.30;;;;;;;16.24;47.48;99270.44;5119201;27;44021;-84
2024/03/16 15:58:04;;;;;;;2.37;1.17;;;;;;;16.33;47.91;99281.25;5119305;27;42205;-80
2024/03/16 16:00:32;;;;;;;2.50;1.50;;;;;;;16.24;47.63;99270.44;5103843;27;40332;-77
2024/03/16 16:02:59;;;;;;;2.03;1.40;;;;;;;16.22;47.60;99291.09;5129011;27;42258;-77
2024/03/16 16:05:26;;;;;;;1.60;1.47;;;;;;;16.16;48.05;99293.28;5122968;27;41518;-79
2024/03/16 16:07:53;;;;;;;1.83;1.30;;;;;;;16.10;47.59;99307.13;5102341;27;41312;-81
2024/03/16 16:10:20;;;;;;;3.00;1.43;;;;;;;15.97;48.18;99301.03;5101450;27;40024;-80
2024/03/16 16:12:49;;;;;;;1.57;1.47;;;;;;;15.82;48.02;99307.59;5118768;27;41754;-80
2024/03/16 16:15:19;;;;;;;1.50;1.30;;;;;;;15.65;48.06;99300.84;5135654;27;43439;-76
2024/03/16 16:17:48;;;;;;;1.70;1.40;;;;;;;15.53;48.79;99303.56;5120132;27;41052;-76
2024/03/16 16:20:19;;;;;;;2.53;1.53;;;;;;;15.37;48.89;99291.38;5118900;27;40871;-77
2024/03/16 16:22:47;;;;;;;1.57;1.47;;;;;;;15.35;49.23;99319.97;5119569;27;43838;-83
2024/03/16 16:25:13;;;;;;;1.80;1.50;;;;;;;15.34;49.68;99322.75;5135284;27;43689;-80
2024/03/16 16:27:41;;;;;;;1.33;1.23;;;;;;;15.26;49.76;99315.34;5118618;27;42296;-82
2024/03/16 16:30:08;;;;;;;1.50;1.40;;;;;;;15.18;50.61;99301.72;5118392;27;40003;-81
2024/03/16 16:32:36;;;;;;;2.50;1.70;;;;;;;15.19;50.54;99318.59;5119320;27;40843;-78
2024/03/16 16:35:03;;;;;;;1.80;1.67;;;;;;;15.13;50.91;99317.22;5122092;27;42052;-78
2024/03/16 16:37:30;;;;;;;3.00;1.57;;;;;;;15.06;51.41;99318.63;5104975;27;41749;-76
2024/03/16 16:39:57;;;;;;;1.97;1.70;;;;;;;14.98;51.37;99316.50;5104917;27;39271;-82
2024/03/16 16:42:30;;;;;;;1.67;1.47;;;;;;;14.71;51.01;99294.56;5121829;27;42095;-77
2024/03/16 16:44:56;;;;;;;1.23;1.13;;;;;;;14.70;51.40;99312.34;5106045;27;41556;-80
2024/03/16 16:47:24;;;;;;;2.33;1.37;;;;;;;14.72;50.80;99341.53;5121978;27;43120;-77
2024/03/16 16:49:50;;;;;;;1.50;1.40;;;;;;;14.54;50.62;99321.56;5139104;27;41048;-77
2024/03/16 16:52:19;;;;;;;1.07;1.03;;;;;;;14.50;50.93;99334.25;5121493;27;41194;-79
2024/03/16 16:54:45;;;;;;;1.30;1.20;;;;;;;14.48;50.36;99346.81;5121668;27;43624;-79
2024/03/16 16:57:13;;;;;;;1.33;1.23;;;;;;;14.38;50.62;99353.72;5121602;27;42207;-81
2024/03/16 16:59:40;;;;;;;1.47;1.37;;;;;;;14.31;51.40;99349.81;5104677;27;38811;-80
2024/03/16 17:02:08;;;;;;;1.43;1.30;;;;;;;14.21;51.67;99352.25;5121186;27;41927;-79
2024/03/16 17:04:34;;;;;;;1.50;1.40;;;;;;;13.72;51.74;99298.00;5121603;27;42876;-83
2024/03/16 17:07:02;;;;;;;2.03;1.37;;;;;;;13.96;51.88;99358.41;5121337;27;42921;-80
2024/03/16 17:09:29;;;;;;;1.73;1.50;;;;;;;13.89;52.27;99356.25;5138744;27;41355;-82
2024/03/16 17:11:57;;;;;;;1.90;1.60;;;;;;;13.81;52.54;99364.78;5120414;27;41028;-80
2024/03/16 17:14:24;;;;;;;1.60;1.50;;;;;;;13.72;52.13;99376.06;5120824;27;43681;-79
2024/03/16 17:16:57;;;;;;;1.63;1.50;;;;;;;13.37;52.52;99321.66;5104150;27;41185;-77
2024/03/16 17:19:24;;;;;;;2.10;1.73;;;;;;;13.58;52.50;99373.47;5122537;27;38618;-78
2024/03/16 17:21:55;;;;;;;2.23;1.57;;;;;;;13.40;52.65;99364.03;5103570;27;41390;-82
2024/03/16 17:24:22;;;;;;;1.53;1.40;;;;;;;13.37;52.99;99380.16;5118858;27;43244;-83
2024/03/16 17:26:49;;;;;;;1.60;1.50;;;;;;;13.27;52.48;99391.44;5103619;27;42494;-79
2024/03/16 17:29:16;;;;;;;1.47;1.30;;;;;;;13.13;52.38;99388.75;5121153;27;41004;-79
2024/03/16 17:31:44;;;;;;;1.83;1.33;;;;;;;13.12;52.44;99403.00;5103788;27;40379;-77
2024/03/16 17:34:10;;;;;;;1.80;1.40;;;;;;;12.96;52.62;99394.31;5121344;27;43050;-79
2024/03/16 17:36:38;;;;;;;1.33;1.10;;;;;;;12.84;52.60;99397.75;5123035;27;41685;-78
2024/03/16 17:39:05;;;;;;;1.27;1.17;;;;;;;12.76;53.15;99400.03;5125002;27;40244;-80
2024/03/16 17:41:33;;;;;;;1.40;1.30;;;;;;;12.61;53.43;99411.63;5142183;27;41759;-77
2024/03/16 17:44:00;;;;;;;1.33;1.17;;;;;;;12.46;53.52;99413.44;5141541;27;42546;-77
2024/03/16 17:46:28;;;;;;;1.20;1.10;;;;;;;12.31;53.83;99407.25;5108042;27;42121;-77
2024/03/16 17:48:54;;;;;;;1.20;1.10;;;;;;;12.17;53.78;99412.53;5108917;27;39651;-79
2024/03/16 17:51:22;;;;;;;2.40;1.00;;;;;;;12.05;54.42;99413.25;5121921;27;41835;-81
2024/03/16 17:53:49;;;;;;;1.30;1.10;;;;;;;11.88;54.28;99415.09;5137892;27;42788;-79
2024/03/16 17:56:16;;;;;;;1.20;1.10;;;;;;;11.80;54.80;99420.03;5103379;27;40883;-79